Time;durP1;ratioP1;P1;durP2;ratioP2;P2;SDS_P1;SDS_P2;PMS_P1;PMS_P2;Temp;Humidity;BMP_temperature;BMP_pressure;BME280_temperature;BME280_humidity;BME280_pressure;Samples;Min_cycle;Max_cycle;Signal;HPM_P1;HPM_P2
2022/03/09 00:00:34;;;;;;;27.60;14.30;;;;;;;;;;4910986;28;20420;-35
2022/03/09 00:03:00;;;;;;;24.83;13.80;;;;;;;;;;4912220;28;20415;-35
2022/03/09 00:05:27;;;;;;;26.87;14.73;;;;;;;;;;4912386;28;20462;-36
2022/03/09 00:07:53;;;;;;;30.10;15.37;;;;;;;;;;4910093;28;20438;-35
2022/03/09 00:10:19;;;;;;;26.80;14.60;;;;;;;;;;4909391;28;20430;-35
2022/03/09 00:12:45;;;;;;;23.90;13.93;;;;;;;;;;4908846;28;21031;-35
2022/03/09 00:15:11;;;;;;;26.83;14.73;;;;;;;;;;4912466;28;20894;-36
2022/03/09 00:20:41;;;;;;;30.43;15.93;;;;;;;;;;4902956;28;21014;-35
2022/03/09 00:23:07;;;;;;;27.90;15.53;;;;;;;;;;4908415;28;20923;-35
2022/03/09 00:25:33;;;;;;;30.10;15.33;;;;;;;;;;4913634;28;20560;-35
2022/03/09 00:27:59;;;;;;;23.93;14.90;;;;;;;;;;4909559;28;20435;-35
2022/03/09 00:30:25;;;;;;;26.33;15.63;;;;;;;;;;4907312;28;20434;-35
2022/03/09 00:32:51;;;;;;;24.80;15.63;;;;;;;;;;4909600;28;20447;-35
2022/03/09 00:35:17;;;;;;;25.83;15.30;;;;;;;;;;4910084;28;21290;-35
2022/03/09 00:37:43;;;;;;;25.33;15.63;;;;;;;;;;4912068;28;22105;-35
2022/03/09 00:40:10;;;;;;;26.90;15.53;;;;;;;;;;4912762;28;21139;-35
2022/03/09 00:42:39;;;;;;;31.23;15.80;;;;;;;;;;4912888;28;20556;-35
2022/03/09 00:45:06;;;;;;;28.77;16.13;;;;;;;;;;4909925;28;21015;-36
2022/03/09 00:47:32;;;;;;;27.70;16.57;;;;;;;;;;4905835;28;20801;-35
2022/03/09 00:49:59;;;;;;;32.03;16.60;;;;;;;;;;4909476;28;20429;-36
2022/03/09 00:52:25;;;;;;;27.03;15.80;;;;;;;;;;4909653;28;20454;-36
2022/03/09 00:54:51;;;;;;;26.80;15.90;;;;;;;;;;4907366;28;20434;-35
2022/03/09 00:57:17;;;;;;;26.47;15.53;;;;;;;;;;4911808;28;20455;-36
2022/03/09 00:59:43;;;;;;;26.47;16.17;;;;;;;;;;4907481;28;21210;-36
2022/03/09 01:02:09;;;;;;;28.60;16.50;;;;;;;;;;4912251;28;20434;-36
2022/03/09 01:04:35;;;;;;;28.50;16.23;;;;;;;;;;4925643;28;20427;-36
2022/03/09 01:07:03;;;;;;;23.73;14.13;;;;;;;;;;4908042;28;20426;-35
2022/03/09 01:09:29;;;;;;;23.93;14.97;;;;;;;;;;4906623;28;20563;-35
2022/03/09 01:11:55;;;;;;;27.13;15.67;;;;;;;;;;4908673;28;20983;-35
2022/03/09 01:14:21;;;;;;;28.27;15.80;;;;;;;;;;4907915;28;20893;-35
2022/03/09 01:16:47;;;;;;;27.87;15.63;;;;;;;;;;4906799;28;20901;-35
2022/03/09 01:19:13;;;;;;;31.07;16.57;;;;;;;;;;4907688;28;20467;-35
2022/03/09 01:21:39;;;;;;;30.27;16.40;;;;;;;;;;4903046;28;20432;-35
2022/03/09 01:24:06;;;;;;;28.43;15.50;;;;;;;;;;4910066;28;20645;-35
2022/03/09 01:26:32;;;;;;;25.83;14.83;;;;;;;;;;4911939;28;20431;-35
2022/03/09 01:28:58;;;;;;;22.93;14.13;;;;;;;;;;4909084;28;20885;-35
2022/03/09 01:31:25;;;;;;;26.03;14.33;;;;;;;;;;4906100;28;20460;-35
2022/03/09 01:33:51;;;;;;;21.23;13.47;;;;;;;;;;4907438;28;20433;-35
2022/03/09 01:36:17;;;;;;;23.00;13.53;;;;;;;;;;4911163;28;20995;-35
2022/03/09 01:38:43;;;;;;;26.63;14.83;;;;;;;;;;4908846;28;20518;-36
2022/03/09 01:41:11;;;;;;;24.63;13.50;;;;;;;;;;4909715;28;20427;-35
2022/03/09 01:43:37;;;;;;;23.47;13.93;;;;;;;;;;4911722;28;20783;-35
2022/03/09 01:46:03;;;;;;;24.53;14.47;;;;;;;;;;4910021;28;20471;-35
2022/03/09 01:48:29;;;;;;;22.40;13.67;;;;;;;;;;4910227;28;20618;-36
2022/03/09 01:50:56;;;;;;;25.53;13.50;;;;;;;;;;4907115;28;21340;-35
2022/03/09 01:53:22;;;;;;;21.80;13.33;;;;;;;;;;4907998;28;20905;-35
2022/03/09 01:55:48;;;;;;;22.60;13.53;;;;;;;;;;4908523;28;20435;-35
2022/03/09 01:58:14;;;;;;;26.17;14.30;;;;;;;;;;4908679;28;20434;-35
2022/03/09 02:00:40;;;;;;;23.43;12.90;;;;;;;;;;4911804;28;20548;-35
2022/03/09 02:03:06;;;;;;;20.27;12.83;;;;;;;;;;4909493;28;20736;-36
2022/03/09 02:05:33;;;;;;;23.50;13.03;;;;;;;;;;4906360;28;20438;-35
2022/03/09 02:10:44;;;;;;;23.50;12.83;;;;;;;;;;4909129;28;20501;-35
2022/03/09 02:13:10;;;;;;;22.57;12.73;;;;;;;;;;4908020;28;20459;-35
2022/03/09 02:15:36;;;;;;;22.60;12.27;;;;;;;;;;4906194;28;20427;-35
2022/03/09 02:18:03;;;;;;;24.50;12.50;;;;;;;;;;4909627;28;20434;-35
2022/03/09 02:20:29;;;;;;;23.83;13.27;;;;;;;;;;4912822;28;20423;-35
2022/03/09 02:22:56;;;;;;;22.20;12.87;;;;;;;;;;4910795;28;20789;-36
2022/03/09 02:25:22;;;;;;;25.20;13.27;;;;;;;;;;4912511;28;20874;-37
2022/03/09 02:27:48;;;;;;;21.17;12.77;;;;;;;;;;4914178;28;21021;-35
2022/03/09 02:30:18;;;;;;;26.57;12.67;;;;;;;;;;4912491;28;20426;-35
2022/03/09 02:32:45;;;;;;;22.73;12.30;;;;;;;;;;4912454;28;20992;-35
2022/03/09 02:35:12;;;;;;;20.87;12.87;;;;;;;;;;4912004;28;20497;-35
2022/03/09 02:37:40;;;;;;;23.50;13.03;;;;;;;;;;4913017;28;21139;-35
2022/03/09 02:40:11;;;;;;;19.90;12.00;;;;;;;;;;4912510;28;20890;-35
2022/03/09 02:42:37;;;;;;;22.93;13.00;;;;;;;;;;4911830;28;21171;-35
2022/03/09 02:45:04;;;;;;;19.13;11.93;;;;;;;;;;4911013;28;20461;-35
2022/03/09 02:47:30;;;;;;;26.63;12.23;;;;;;;;;;4910068;28;20435;-35
2022/03/09 02:49:56;;;;;;;20.07;12.20;;;;;;;;;;4915896;28;20890;-36
2022/03/09 02:52:22;;;;;;;19.57;12.27;;;;;;;;;;4912535;28;20457;-35
2022/03/09 02:54:48;;;;;;;19.17;12.27;;;;;;;;;;4911462;28;20423;-35
2022/03/09 02:57:15;;;;;;;19.23;11.77;;;;;;;;;;4904374;28;20467;-35
2022/03/09 02:59:41;;;;;;;18.53;11.20;;;;;;;;;;4912526;28;21081;-35
2022/03/09 03:02:07;;;;;;;19.80;11.90;;;;;;;;;;4911590;28;20470;-35
2022/03/09 03:04:33;;;;;;;18.70;11.17;;;;;;;;;;4915116;28;20994;-35
2022/03/09 03:06:59;;;;;;;19.17;12.00;;;;;;;;;;4910544;28;20427;-35
2022/03/09 03:09:25;;;;;;;19.47;11.40;;;;;;;;;;4908030;28;20434;-36
2022/03/09 03:11:51;;;;;;;21.13;12.23;;;;;;;;;;4911574;28;21050;-35
2022/03/09 03:14:17;;;;;;;16.70;10.37;;;;;;;;;;4913148;28;20553;-34
2022/03/09 03:16:43;;;;;;;21.93;12.13;;;;;;;;;;4912510;28;20504;-36
2022/03/09 03:19:09;;;;;;;18.03;11.10;;;;;;;;;;4909929;28;20429;-35
2022/03/09 03:21:35;;;;;;;18.23;10.53;;;;;;;;;;4910410;28;21084;-35
2022/03/09 03:24:01;;;;;;;17.17;11.10;;;;;;;;;;4914326;28;20438;-35
2022/03/09 03:26:28;;;;;;;19.13;10.67;;;;;;;;;;4912143;28;21288;-35
2022/03/09 03:28:54;;;;;;;19.23;11.93;;;;;;;;;;4909966;28;20629;-35
2022/03/09 03:31:21;;;;;;;18.80;10.97;;;;;;;;;;4909514;28;20864;-35
2022/03/09 03:33:48;;;;;;;18.77;11.27;;;;;;;;;;4913014;28;21021;-35
2022/03/09 03:36:17;;;;;;;18.57;11.37;;;;;;;;;;4914387;28;20506;-35
2022/03/09 03:38:43;;;;;;;17.60;10.90;;;;;;;;;;4913199;28;20762;-35
2022/03/09 03:41:09;;;;;;;23.27;11.27;;;;;;;;;;4911066;28;20431;-35
2022/03/09 03:43:36;;;;;;;19.03;10.60;;;;;;;;;;4910755;28;21264;-35
2022/03/09 03:46:02;;;;;;;21.30;11.27;;;;;;;;;;4913028;28;20865;-35
2022/03/09 03:48:28;;;;;;;21.73;10.90;;;;;;;;;;4909633;28;20445;-35
2022/03/09 03:50:54;;;;;;;18.03;11.07;;;;;;;;;;4913225;28;20756;-35
2022/03/09 03:53:20;;;;;;;21.40;11.37;;;;;;;;;;4909257;28;20777;-35
2022/03/09 03:55:46;;;;;;;17.53;11.30;;;;;;;;;;4916778;28;20469;-35
2022/03/09 03:58:12;;;;;;;18.27;10.50;;;;;;;;;;4913743;28;20426;-35
2022/03/09 04:00:38;;;;;;;19.27;11.23;;;;;;;;;;4909733;28;20767;-36
2022/03/09 04:03:04;;;;;;;19.57;10.97;;;;;;;;;;4915507;28;20419;-35
2022/03/09 04:05:31;;;;;;;19.80;11.53;;;;;;;;;;4912148;28;20431;-36
2022/03/09 04:07:57;;;;;;;17.03;10.93;;;;;;;;;;4909842;28;20528;-35
2022/03/09 04:10:23;;;;;;;18.97;10.90;;;;;;;;;;4912701;28;21263;-35
2022/03/09 04:12:49;;;;;;;18.27;11.20;;;;;;;;;;4912403;28;20471;-35
2022/03/09 04:15:15;;;;;;;20.20;10.67;;;;;;;;;;4911528;28;21002;-35
2022/03/09 04:17:42;;;;;;;17.17;10.10;;;;;;;;;;4913053;28;20566;-35
2022/03/09 04:20:09;;;;;;;16.83;9.83;;;;;;;;;;4911102;28;20685;-35
2022/03/09 04:22:35;;;;;;;17.20;10.87;;;;;;;;;;4909216;28;20431;-36
2022/03/09 04:25:01;;;;;;;13.90;9.77;;;;;;;;;;4914608;28;20984;-35
2022/03/09 04:27:28;;;;;;;17.53;10.30;;;;;;;;;;4911156;28;21127;-35
2022/03/09 04:29:54;;;;;;;17.10;10.13;;;;;;;;;;4913516;28;20579;-35
2022/03/09 04:32:20;;;;;;;20.67;10.80;;;;;;;;;;4912324;28;20462;-36
2022/03/09 04:34:46;;;;;;;19.73;10.63;;;;;;;;;;4912550;28;20634;-36
2022/03/09 04:37:12;;;;;;;15.00;9.77;;;;;;;;;;4914945;28;20431;-36
2022/03/09 04:39:38;;;;;;;19.83;10.00;;;;;;;;;;4912551;28;20424;-36
2022/03/09 04:42:04;;;;;;;18.10;10.37;;;;;;;;;;4912105;28;20497;-35
2022/03/09 04:44:30;;;;;;;16.57;9.87;;;;;;;;;;4912850;28;20901;-35
2022/03/09 04:46:56;;;;;;;17.03;9.97;;;;;;;;;;4908029;28;20983;-35
2022/03/09 04:49:22;;;;;;;16.27;9.73;;;;;;;;;;4912346;28;20430;-35
2022/03/09 04:51:49;;;;;;;16.27;10.07;;;;;;;;;;4913474;28;20859;-35
2022/03/09 04:54:15;;;;;;;17.67;9.73;;;;;;;;;;4909361;28;20427;-35
2022/03/09 04:56:41;;;;;;;18.60;9.53;;;;;;;;;;4908668;28;20414;-35
2022/03/09 04:59:07;;;;;;;15.63;9.30;;;;;;;;;;4911857;28;21064;-35
2022/03/09 05:01:33;;;;;;;16.30;9.57;;;;;;;;;;4908887;28;20435;-35
2022/03/09 05:03:59;;;;;;;17.27;10.30;;;;;;;;;;4910364;28;20426;-35
2022/03/09 05:06:25;;;;;;;17.20;9.97;;;;;;;;;;4908385;28;20419;-35
2022/03/09 05:08:51;;;;;;;17.83;9.87;;;;;;;;;;4909292;28;20446;-35
2022/03/09 05:11:17;;;;;;;16.03;9.80;;;;;;;;;;4906458;28;21041;-34
2022/03/09 05:13:43;;;;;;;16.43;9.30;;;;;;;;;;4910624;28;20983;-35
2022/03/09 05:16:09;;;;;;;15.03;9.53;;;;;;;;;;4907997;28;20897;-35
2022/03/09 05:18:37;;;;;;;17.47;10.00;;;;;;;;;;4905807;28;20864;-35
2022/03/09 05:21:04;;;;;;;15.50;9.57;;;;;;;;;;4911500;28;20740;-35
2022/03/09 05:23:30;;;;;;;13.53;8.67;;;;;;;;;;4912160;28;21033;-36
2022/03/09 05:25:56;;;;;;;16.47;10.27;;;;;;;;;;4915648;28;20725;-35
2022/03/09 05:28:22;;;;;;;16.37;9.40;;;;;;;;;;4907636;28;20626;-36
2022/03/09 05:30:48;;;;;;;17.10;8.97;;;;;;;;;;4907127;28;20562;-36
2022/03/09 05:33:14;;;;;;;15.20;8.80;;;;;;;;;;4907397;28;20923;-35
2022/03/09 05:35:40;;;;;;;17.33;9.23;;;;;;;;;;4913301;28;20741;-35
2022/03/09 05:38:06;;;;;;;18.00;9.67;;;;;;;;;;4912315;28;20868;-35
2022/03/09 05:40:33;;;;;;;18.07;8.70;;;;;;;;;;4909405;28;20423;-35
2022/03/09 05:42:59;;;;;;;14.43;8.90;;;;;;;;;;4910152;28;20861;-35
2022/03/09 05:45:25;;;;;;;19.23;9.70;;;;;;;;;;4909819;28;20427;-35
2022/03/09 05:47:51;;;;;;;16.33;8.87;;;;;;;;;;4912315;28;20434;-36
2022/03/09 05:50:18;;;;;;;17.60;9.40;;;;;;;;;;4910455;28;20803;-36
2022/03/09 05:52:44;;;;;;;21.57;9.97;;;;;;;;;;4904327;28;20464;-36
2022/03/09 05:55:10;;;;;;;14.47;8.77;;;;;;;;;;4913428;28;20764;-36
2022/03/09 05:57:36;;;;;;;16.57;9.83;;;;;;;;;;4909821;28;20471;-36
2022/03/09 06:00:06;;;;;;;15.27;9.70;;;;;;;;;;4904164;28;20427;-35
2022/03/09 06:02:32;;;;;;;19.07;9.20;;;;;;;;;;4911171;29;20435;-36
2022/03/09 06:04:58;;;;;;;18.90;10.23;;;;;;;;;;4915632;28;20621;-35
2022/03/09 06:07:24;;;;;;;17.27;9.90;;;;;;;;;;4910910;28;20838;-35
2022/03/09 06:09:50;;;;;;;14.97;9.67;;;;;;;;;;4907181;28;20957;-36
2022/03/09 06:12:17;;;;;;;16.73;9.40;;;;;;;;;;4907244;28;21449;-36
2022/03/09 06:14:43;;;;;;;16.63;9.10;;;;;;;;;;4910583;28;21018;-36
2022/03/09 06:17:09;;;;;;;17.10;9.07;;;;;;;;;;4910052;28;20461;-35
2022/03/09 06:19:35;;;;;;;15.00;9.27;;;;;;;;;;4908133;28;20497;-36
2022/03/09 06:22:01;;;;;;;13.60;8.83;;;;;;;;;;4902381;28;20437;-36
2022/03/09 06:24:27;;;;;;;19.80;9.93;;;;;;;;;;4908303;28;21078;-35
2022/03/09 06:26:53;;;;;;;19.17;10.13;;;;;;;;;;4905570;28;20674;-35
2022/03/09 06:29:20;;;;;;;16.47;8.80;;;;;;;;;;4906885;28;20446;-36
2022/03/09 06:31:46;;;;;;;17.93;9.40;;;;;;;;;;4907109;28;20811;-36
2022/03/09 06:34:12;;;;;;;18.20;9.50;;;;;;;;;;4907255;28;20498;-37
2022/03/09 06:36:43;;;;;;;19.23;9.53;;;;;;;;;;4907758;28;20438;-35
2022/03/09 06:39:09;;;;;;;19.13;10.37;;;;;;;;;;4899724;28;20553;-35
2022/03/09 06:41:35;;;;;;;21.77;9.93;;;;;;;;;;4909354;28;20423;-34
2022/03/09 06:44:02;;;;;;;16.47;9.03;;;;;;;;;;4909937;28;20437;-36
2022/03/09 06:46:28;;;;;;;19.80;10.53;;;;;;;;;;4914946;28;21323;-36
2022/03/09 06:48:54;;;;;;;18.83;10.20;;;;;;;;;;4910404;28;20768;-37
2022/03/09 06:51:20;;;;;;;20.00;9.80;;;;;;;;;;4911213;28;20705;-36
2022/03/09 06:53:46;;;;;;;18.50;10.30;;;;;;;;;;4907075;28;20576;-36
2022/03/09 06:56:12;;;;;;;20.50;9.60;;;;;;;;;;4911947;28;20859;-36
2022/03/09 06:58:38;;;;;;;19.80;10.20;;;;;;;;;;4911603;28;20424;-36
2022/03/09 07:01:04;;;;;;;21.87;10.67;;;;;;;;;;4910305;29;20817;-36
2022/03/09 07:03:30;;;;;;;16.07;10.27;;;;;;;;;;4911298;29;20838;-36
2022/03/09 07:05:57;;;;;;;17.97;10.20;;;;;;;;;;4916098;28;20434;-36
2022/03/09 07:08:23;;;;;;;20.43;10.97;;;;;;;;;;4917326;28;21274;-36
2022/03/09 07:10:50;;;;;;;17.27;10.27;;;;;;;;;;4914451;28;21044;-36
2022/03/09 07:13:16;;;;;;;21.17;11.43;;;;;;;;;;4910313;28;20494;-37
2022/03/09 07:15:42;;;;;;;18.67;10.20;;;;;;;;;;4914271;28;20418;-36
2022/03/09 07:18:08;;;;;;;20.07;10.13;;;;;;;;;;4914474;28;20437;-37
2022/03/09 07:20:34;;;;;;;18.30;10.40;;;;;;;;;;4913272;28;20422;-36
2022/03/09 07:23:00;;;;;;;23.77;11.60;;;;;;;;;;4913578;28;20430;-37
2022/03/09 07:25:26;;;;;;;19.63;10.53;;;;;;;;;;4915970;28;20427;-36
2022/03/09 07:27:52;;;;;;;21.63;11.27;;;;;;;;;;4915435;29;20427;-37
2022/03/09 07:30:18;;;;;;;22.73;11.17;;;;;;;;;;4917849;28;20476;-36
2022/03/09 07:32:44;;;;;;;18.30;10.73;;;;;;;;;;4917992;28;20461;-37
2022/03/09 07:35:11;;;;;;;18.93;10.73;;;;;;;;;;4917363;28;20407;-37
2022/03/09 07:37:37;;;;;;;20.87;10.87;;;;;;;;;;4918841;28;20434;-37
2022/03/09 07:40:04;;;;;;;20.50;11.20;;;;;;;;;;4918303;29;20422;-36
2022/03/09 07:42:30;;;;;;;20.10;11.37;;;;;;;;;;4919143;29;20489;-37
2022/03/09 07:44:56;;;;;;;18.33;10.97;;;;;;;;;;4917289;29;20439;-37
2022/03/09 07:47:22;;;;;;;20.83;11.40;;;;;;;;;;4914182;28;20540;-37
2022/03/09 07:49:49;;;;;;;21.50;11.27;;;;;;;;;;4933031;28;20433;-37
2022/03/09 07:52:15;;;;;;;19.53;11.33;;;;;;;;;;4917541;29;20973;-37
2022/03/09 07:54:41;;;;;;;24.17;11.73;;;;;;;;;;4918027;28;20578;-37
2022/03/09 07:57:07;;;;;;;21.80;11.37;;;;;;;;;;4913628;28;20419;-37
2022/03/09 07:59:33;;;;;;;22.83;12.30;;;;;;;;;;4915530;28;20868;-37
2022/03/09 08:02:00;;;;;;;26.30;13.20;;;;;;;;;;4917660;28;20458;-40
2022/03/09 08:04:26;;;;;;;24.77;12.60;;;;;;;;;;4918545;28;20426;-37
2022/03/09 08:06:53;;;;;;;22.57;12.43;;;;;;;;;;4916028;28;20424;-37
2022/03/09 08:09:19;;;;;;;19.33;11.73;;;;;;;;;;4907361;28;20428;-38
2022/03/09 08:11:46;;;;;;;25.67;13.10;;;;;;;;;;4914170;28;20928;-38
2022/03/09 08:14:12;;;;;;;22.13;12.63;;;;;;;;;;4918433;28;21011;-38
2022/03/09 08:16:39;;;;;;;27.80;14.33;;;;;;;;;;4905348;28;20430;-38
2022/03/09 08:19:05;;;;;;;24.97;13.80;;;;;;;;;;4913261;28;20833;-38
2022/03/09 08:21:31;;;;;;;28.10;14.30;;;;;;;;;;4905185;28;20438;-38
2022/03/09 08:23:57;;;;;;;28.90;16.20;;;;;;;;;;4913029;28;20438;-38
2022/03/09 08:26:23;;;;;;;31.27;15.67;;;;;;;;;;4913529;28;20422;-38
2022/03/09 08:28:50;;;;;;;28.63;16.60;;;;;;;;;;4917057;28;21266;-38
2022/03/09 08:31:16;;;;;;;34.83;17.40;;;;;;;;;;4917582;28;20470;-39
2022/03/09 08:33:42;;;;;;;30.47;16.73;;;;;;;;;;4913738;28;20759;-38
2022/03/09 08:36:11;;;;;;;32.80;17.73;;;;;;;;;;4911118;28;20418;-36
2022/03/09 08:38:37;;;;;;;27.83;16.73;;;;;;;;;;4914919;28;20950;-37
2022/03/09 08:41:03;;;;;;;30.60;18.17;;;;;;;;;;4915183;28;20983;-37
2022/03/09 08:43:29;;;;;;;32.67;18.87;;;;;;;;;;4913694;28;20924;-37
2022/03/09 08:45:55;;;;;;;31.83;18.90;;;;;;;;;;4913582;28;21182;-36
2022/03/09 08:48:22;;;;;;;33.73;18.30;;;;;;;;;;4912211;28;20489;-37
2022/03/09 08:50:48;;;;;;;30.40;17.97;;;;;;;;;;4912077;28;21196;-37
2022/03/09 08:53:15;;;;;;;30.03;17.83;;;;;;;;;;4917642;28;21570;-37
2022/03/09 08:55:42;;;;;;;27.43;16.83;;;;;;;;;;4915314;28;20427;-37
2022/03/09 08:58:08;;;;;;;32.80;18.40;;;;;;;;;;4912506;28;20541;-37
2022/03/09 09:00:34;;;;;;;31.00;17.53;;;;;;;;;;4912308;28;20431;-37
2022/03/09 09:03:00;;;;;;;29.93;17.80;;;;;;;;;;4915299;28;20922;-38
2022/03/09 09:05:26;;;;;;;28.03;17.27;;;;;;;;;;4915738;28;20861;-37
2022/03/09 09:07:53;;;;;;;30.77;18.20;;;;;;;;;;4917263;28;20210;-37
2022/03/09 09:10:19;;;;;;;32.20;18.17;;;;;;;;;;4915708;28;20565;-36
2022/03/09 09:12:46;;;;;;;30.57;18.87;;;;;;;;;;4910845;29;20230;-37
2022/03/09 09:15:12;;;;;;;31.77;18.33;;;;;;;;;;4915760;28;20638;-37
2022/03/09 09:17:38;;;;;;;31.47;19.20;;;;;;;;;;4913869;28;20959;-37
2022/03/09 09:20:05;;;;;;;36.10;19.60;;;;;;;;;;4915350;28;20624;-37
2022/03/09 09:22:31;;;;;;;31.20;18.97;;;;;;;;;;4913974;28;20616;-36
2022/03/09 09:24:57;;;;;;;30.10;18.33;;;;;;;;;;4914505;28;20372;-36
2022/03/09 09:27:23;;;;;;;29.63;19.47;;;;;;;;;;4913058;28;25078;-36
2022/03/09 09:29:49;;;;;;;31.57;20.43;;;;;;;;;;4916695;28;20215;-37
2022/03/09 09:32:16;;;;;;;32.53;19.97;;;;;;;;;;4911407;28;20202;-36
2022/03/09 09:34:42;;;;;;;31.70;20.03;;;;;;;;;;4912134;28;20493;-36
2022/03/09 09:37:08;;;;;;;31.00;19.93;;;;;;;;;;4914502;28;20209;-37
2022/03/09 09:39:34;;;;;;;31.80;19.60;;;;;;;;;;4913256;28;20375;-36
2022/03/09 09:42:00;;;;;;;32.27;20.87;;;;;;;;;;4914930;28;20216;-37
2022/03/09 09:44:26;;;;;;;37.33;20.10;;;;;;;;;;4909185;29;20192;-36
2022/03/09 09:46:53;;;;;;;41.17;21.53;;;;;;;;;;4913607;28;20359;-37
2022/03/09 09:49:25;;;;;;;32.60;20.07;;;;;;;;;;4913910;28;20183;-37
2022/03/09 09:51:53;;;;;;;32.30;20.23;;;;;;;;;;4915268;28;20210;-37
2022/03/09 09:54:19;;;;;;;36.03;22.20;;;;;;;;;;4914498;28;20590;-37
2022/03/09 09:56:46;;;;;;;32.90;20.57;;;;;;;;;;4912373;28;20593;-37
2022/03/09 09:59:12;;;;;;;37.80;21.70;;;;;;;;;;4915225;28;20258;-36
2022/03/09 10:01:40;;;;;;;33.60;21.43;;;;;;;;;;4914187;28;20216;-37
2022/03/09 10:04:07;;;;;;;36.33;23.13;;;;;;;;;;4915607;28;20550;-37
2022/03/09 10:06:33;;;;;;;39.83;23.53;;;;;;;;;;4916952;28;20191;-37
2022/03/09 10:09:20;;;;;;;38.17;23.77;;;;;;;;;;4914491;28;20542;-37
2022/03/09 10:11:53;;;;;;;39.23;22.47;;;;;;;;;;4914852;29;20860;-36
2022/03/09 10:14:39;;;;;;;35.60;22.17;;;;;;;;;;4915767;28;20215;-36
2022/03/09 10:17:07;;;;;;;36.07;21.83;;;;;;;;;;4909794;29;20672;-36
2022/03/09 10:19:34;;;;;;;37.77;22.53;;;;;;;;;;4912966;28;20185;-37
2022/03/09 10:22:21;;;;;;;38.57;23.13;;;;;;;;;;4915413;28;20262;-37
2022/03/09 10:24:47;;;;;;;38.10;22.43;;;;;;;;;;4917300;28;20302;-37
2022/03/09 10:27:13;;;;;;;35.07;22.27;;;;;;;;;;4913321;29;20190;-37
2022/03/09 10:29:39;;;;;;;37.50;23.57;;;;;;;;;;4911912;29;20246;-37
2022/03/09 10:32:06;;;;;;;33.43;21.70;;;;;;;;;;4916153;28;20229;-37
2022/03/09 10:34:35;;;;;;;36.60;21.67;;;;;;;;;;4915400;28;20183;-37
2022/03/09 10:37:05;;;;;;;39.70;23.50;;;;;;;;;;4915232;28;20179;-37
2022/03/09 10:39:33;;;;;;;36.00;22.83;;;;;;;;;;4911022;28;20168;-37
2022/03/09 10:41:59;;;;;;;38.13;21.87;;;;;;;;;;4918709;28;20226;-37
2022/03/09 10:44:48;;;;;;;33.77;21.50;;;;;;;;;;4919625;28;20306;-38
2022/03/09 10:47:34;;;;;;;39.97;22.77;;;;;;;;;;4916216;28;20211;-37
2022/03/09 10:50:09;;;;;;;38.60;23.00;;;;;;;;;;4903229;28;20223;-37
2022/03/09 10:53:02;;;;;;;37.27;23.17;;;;;;;;;;4916862;28;20257;-37
2022/03/09 10:55:28;;;;;;;38.30;23.57;;;;;;;;;;4918139;28;20190;-37
2022/03/09 10:58:06;;;;;;;38.33;22.87;;;;;;;;;;4917451;29;20180;-37
2022/03/09 11:00:36;;;;;;;36.80;23.63;;;;;;;;;;4916875;28;20510;-37
2022/03/09 11:03:06;;;;;;;37.70;23.63;;;;;;;;;;4918318;28;20556;-36
2022/03/09 11:05:32;;;;;;;36.27;23.13;;;;;;;;;;4915749;28;20267;-37
2022/03/09 11:07:59;;;;;;;35.83;22.33;;;;;;;;;;4918633;28;20191;-37
2022/03/09 11:10:26;;;;;;;37.33;23.97;;;;;;;;;;4917507;29;20183;-37
2022/03/09 11:12:52;;;;;;;35.10;22.87;;;;;;;;;;4915835;29;20774;-37
2022/03/09 11:15:20;;;;;;;39.27;22.77;;;;;;;;;;4915303;28;20335;-37
2022/03/09 11:17:48;;;;;;;33.30;22.17;;;;;;;;;;4918498;28;20485;-37
2022/03/09 11:20:17;;;;;;;37.70;21.63;;;;;;;;;;4919618;28;20241;-37
2022/03/09 11:22:43;;;;;;;32.53;20.90;;;;;;;;;;4914577;28;20727;-37
2022/03/09 11:25:10;;;;;;;34.33;22.07;;;;;;;;;;4916792;28;20180;-36
2022/03/09 11:27:45;;;;;;;33.37;20.53;;;;;;;;;;4916720;28;20211;-37
2022/03/09 11:30:37;;;;;;;35.13;20.30;;;;;;;;;;4916482;28;20190;-37
2022/03/09 11:33:03;;;;;;;32.83;20.60;;;;;;;;;;4915822;28;20732;-36
2022/03/09 11:35:30;;;;;;;34.20;21.67;;;;;;;;;;4915566;28;20323;-36
2022/03/09 11:37:56;;;;;;;31.70;20.33;;;;;;;;;;4911307;28;20187;-36
2022/03/09 11:40:22;;;;;;;36.53;21.47;;;;;;;;;;4911884;28;20534;-37
2022/03/09 11:42:48;;;;;;;31.10;19.73;;;;;;;;;;4917281;28;20492;-36
2022/03/09 11:45:14;;;;;;;32.10;19.00;;;;;;;;;;4917803;28;20299;-37
2022/03/09 11:47:59;;;;;;;27.57;18.60;;;;;;;;;;4912879;28;20191;-37
2022/03/09 11:50:30;;;;;;;27.13;18.17;;;;;;;;;;4916052;28;20586;-37
2022/03/09 11:52:59;;;;;;;29.10;17.03;;;;;;;;;;4915031;28;20322;-37
2022/03/09 11:55:25;;;;;;;32.40;19.73;;;;;;;;;;4913325;28;20188;-37
2022/03/09 11:58:23;;;;;;;31.40;20.17;;;;;;;;;;4911990;28;20184;-36
2022/03/09 12:01:03;;;;;;;32.33;19.30;;;;;;;;;;4885929;28;20309;-36
2022/03/09 12:03:36;;;;;;;29.77;19.13;;;;;;;;;;4913904;28;21010;-36
2022/03/09 12:06:02;;;;;;;28.13;18.57;;;;;;;;;;4915870;28;20228;-36
2022/03/09 12:08:44;;;;;;;25.07;17.43;;;;;;;;;;4914313;29;20194;-37
2022/03/09 12:11:11;;;;;;;31.07;18.87;;;;;;;;;;4914918;28;20525;-37
2022/03/09 12:13:46;;;;;;;30.07;18.07;;;;;;;;;;4915014;28;20219;-37
2022/03/09 12:16:19;;;;;;;27.67;17.33;;;;;;;;;;4911984;28;20176;-37
2022/03/09 12:18:52;;;;;;;25.53;16.53;;;;;;;;;;4911157;28;20932;-37
2022/03/09 12:21:20;;;;;;;27.63;17.33;;;;;;;;;;4917443;28;20275;-37
2022/03/09 12:24:04;;;;;;;29.83;18.27;;;;;;;;;;4917788;28;20187;-36
2022/03/09 12:26:40;;;;;;;29.00;18.43;;;;;;;;;;4916200;28;20439;-36
2022/03/09 12:29:26;;;;;;;27.80;17.33;;;;;;;;;;4913036;28;20203;-36
2022/03/09 12:32:07;;;;;;;26.97;17.53;;;;;;;;;;4904441;28;20387;-37
2022/03/09 12:34:37;;;;;;;33.73;20.10;;;;;;;;;;4918083;28;20703;-37
2022/03/09 12:37:05;;;;;;;29.77;19.47;;;;;;;;;;4916313;28;20195;-36
2022/03/09 12:39:31;;;;;;;30.33;19.70;;;;;;;;;;4914151;28;20499;-37
2022/03/09 12:41:58;;;;;;;28.40;19.27;;;;;;;;;;4914637;28;20179;-37
2022/03/09 12:44:25;;;;;;;29.80;19.67;;;;;;;;;;4917674;28;20175;-36
2022/03/09 12:46:52;;;;;;;28.23;18.67;;;;;;;;;;4914572;28;20294;-37
2022/03/09 12:49:30;;;;;;;27.80;18.70;;;;;;;;;;4914997;28;20175;-37
2022/03/09 12:51:57;;;;;;;27.70;17.90;;;;;;;;;;4913931;28;20171;-37
2022/03/09 12:54:39;;;;;;;29.33;18.30;;;;;;;;;;4915622;28;20183;-37
2022/03/09 12:57:06;;;;;;;29.83;19.40;;;;;;;;;;4914016;29;20186;-37
2022/03/09 12:59:32;;;;;;;28.00;18.93;;;;;;;;;;4917418;28;20190;-37
2022/03/09 13:01:58;;;;;;;30.60;19.27;;;;;;;;;;4910341;28;20547;-37
2022/03/09 13:04:25;;;;;;;29.70;19.13;;;;;;;;;;4913945;28;20215;-37
2022/03/09 13:06:51;;;;;;;31.20;19.67;;;;;;;;;;4914397;28;20506;-37
2022/03/09 13:09:24;;;;;;;34.60;19.27;;;;;;;;;;4911547;28;20629;-37
2022/03/09 13:11:50;;;;;;;32.57;19.57;;;;;;;;;;4909721;28;20549;-38
2022/03/09 13:14:16;;;;;;;28.80;18.80;;;;;;;;;;4914998;28;20190;-37
2022/03/09 13:16:43;;;;;;;27.87;18.30;;;;;;;;;;4914098;28;20414;-37
2022/03/09 13:19:09;;;;;;;26.87;18.83;;;;;;;;;;4914253;28;20176;-36
2022/03/09 13:21:35;;;;;;;25.80;17.83;;;;;;;;;;4913303;28;20179;-36
2022/03/09 13:24:03;;;;;;;25.73;17.97;;;;;;;;;;4912409;28;20589;-36
2022/03/09 13:26:37;;;;;;;24.23;16.37;;;;;;;;;;4913913;28;20190;-37
2022/03/09 13:29:04;;;;;;;24.63;14.87;;;;;;;;;;4917417;28;20210;-36
2022/03/09 13:31:42;;;;;;;26.37;15.60;;;;;;;;;;4911890;28;20258;-38
2022/03/09 13:34:19;;;;;;;24.67;16.20;;;;;;;;;;4909293;28;20314;-38
2022/03/09 13:36:45;;;;;;;23.47;15.33;;;;;;;;;;4913744;28;20182;-37
2022/03/09 13:39:12;;;;;;;21.60;16.13;;;;;;;;;;4909173;28;20801;-37
2022/03/09 13:41:39;;;;;;;24.00;16.50;;;;;;;;;;4914578;28;20187;-37
2022/03/09 13:44:06;;;;;;;23.27;15.67;;;;;;;;;;4914040;28;20222;-36
2022/03/09 13:46:32;;;;;;;23.00;17.03;;;;;;;;;;4913202;28;20481;-37
2022/03/09 13:49:08;;;;;;;24.47;17.43;;;;;;;;;;4918080;28;20176;-38
2022/03/09 13:51:35;;;;;;;30.00;17.97;;;;;;;;;;4913836;28;20477;-39
2022/03/09 13:54:04;;;;;;;25.60;17.37;;;;;;;;;;4908221;29;20534;-37
2022/03/09 13:56:33;;;;;;;25.30;16.60;;;;;;;;;;4913086;28;20570;-35
2022/03/09 13:58:59;;;;;;;24.13;15.83;;;;;;;;;;4915930;28;20445;-36
2022/03/09 14:01:31;;;;;;;27.40;17.53;;;;;;;;;;4911762;29;20436;-36
2022/03/09 14:04:01;;;;;;;25.83;17.47;;;;;;;;;;4914293;29;20274;-35
2022/03/09 14:06:29;;;;;;;24.97;17.63;;;;;;;;;;4911589;28;20789;-36
2022/03/09 14:08:55;;;;;;;26.00;17.50;;;;;;;;;;4912659;29;20639;-36
2022/03/09 14:11:26;;;;;;;26.43;16.90;;;;;;;;;;4911166;28;20551;-35
2022/03/09 14:14:06;;;;;;;24.53;17.20;;;;;;;;;;4914406;28;20757;-35
2022/03/09 14:16:36;;;;;;;24.37;16.80;;;;;;;;;;4910059;28;20179;-36
2022/03/09 14:19:04;;;;;;;23.93;17.20;;;;;;;;;;4912052;28;20173;-35
2022/03/09 14:21:31;;;;;;;24.90;16.00;;;;;;;;;;4910064;28;20204;-36
2022/03/09 14:23:57;;;;;;;24.63;16.80;;;;;;;;;;4911326;28;20804;-35
2022/03/09 14:26:27;;;;;;;24.70;16.73;;;;;;;;;;4912237;28;20175;-34